CheckWX is a tool to help pilots better visualize weather data.  It is not intended as a substitute for an official pre-flight weather briefing.

05:51:01 UTC

EGKK TAF
London Gatwick Airport
London, United Kingdom
TAF EGKK 122253Z 1300/1406 VRB03KT 9999 FEW045 PROB30 1300/1306 8000 BECMG 1307/1310 23010KT PROB40 TEMPO 1318/1324 7000 RA BECMG 1321/1324 BKN012 TEMPO 1400/1404 3500 RADZ BKN006 BECMG 1402/1405 30005KT SCT030

Jul-13@
00:00 UTC

Jul-13 @ 00:00 UTC

Jul-13@
07:00 UTC

Jul-13 @ 07:00 UTC

TAF EGKK 122253Z 1300/1406 VRB03KT 9999 FEW045

Expired

Wind
  • Variable at 3 KTS
Cloud Levels
  • Few at 4,500' AGL

Jul-13@
00:00 UTC

Jul-13 @ 00:00 UTC

Jul-13@
06:00 UTC

Jul-13 @ 06:00 UTC

PROB30 1300/1306 8000

Expired

Cloud Levels

Jul-13@
07:00 UTC

Jul-13 @ 07:00 UTC

Jul-13@
21:00 UTC

Jul-13 @ 21:00 UTC

BECMG 1307/1310 23010KT

Expired

Wind
  • 230° at 10 KTS
Cloud Levels
  • Few at 4,500' AGL

Jul-13@
18:00 UTC

Jul-13 @ 18:00 UTC

Jul-14@
00:00 UTC

Jul-14 @ 00:00 UTC

PROB40 TEMPO 1318/1324 7000 RA

Expired

Conditions
Rain
Cloud Levels

Jul-13@
21:00 UTC

Jul-13 @ 21:00 UTC

Jul-14@
02:00 UTC

Jul-14 @ 02:00 UTC

BECMG 1321/1324 BKN012

Expired

Wind
  • 230° at 10 KTS
Cloud Levels
  • Broken at 1,200' AGL

Jul-14@
00:00 UTC

Jul-14 @ 00:00 UTC

Jul-14@
04:00 UTC

Jul-14 @ 04:00 UTC

TEMPO 1400/1404 3500 RADZ BKN006

Expired

Conditions
Rain, Drizzle
Cloud Levels
  • Broken at 600' AGL

Jul-14@
02:00 UTC

Jul-14 @ 02:00 UTC

Jul-14@
06:00 UTC

Jul-14 @ 06:00 UTC

BECMG 1402/1405 30005KT SCT030

Becoming

Becoming Conditions expected by Tue, Jul 14, 2020 @ 05:00 UTC

Wind
  • 300° at 5 KTS
Cloud Levels
  • Scattered at 3,000' AGL